Witten, South Dakota
Current Conditions -  °F | °C
As of 8:53 AM on Wednesday 26 Nov 2014 (Local Time) from KICR Reporting Station
Overcast Overcast  
Wind Chill:   Ceiling: 1100
Heat Index: 22°   Visibility: 10mi
Dew Point: 16°   Wind: 15mph
Humidity: 78%   Direction: 340°NNW
Pressure: 30.27"   Gusts: NA
Location:  43.44°N, 100.08°W
Report Text: KICR 261453Z AUTO 34013KT 10SM OVC011 M06/M09 A3027 RMK AO2 SLP274 T10561089 53034
Loading
Personal Weather Stations






























Interactive Weather Map New forecast layout! Learn more

10-Day Weather Forecast

Advertisements
Track Severe Weather on mobile